Time;durP1;ratioP1;P1;durP2;ratioP2;P2;SDS_P1;SDS_P2;PMS_P1;PMS_P2;Temp;Humidity;BMP_temperature;BMP_pressure;BME280_temperature;BME280_humidity;BME280_pressure;Samples;Min_cycle;Max_cycle;Signal;HPM_P1;HPM_P2
2022/04/05 00:01:29;;;;;;;7.95;4.07;;;13.50;65.60;;;;;;5024881;28;20039;-74
2022/04/05 00:03:55;;;;;;;6.22;3.40;;;13.50;65.70;;;;;;5048023;28;20487;-74
2022/04/05 00:06:21;;;;;;;6.57;3.00;;;13.50;65.70;;;;;;5046756;28;20037;-74
2022/04/05 00:08:46;;;;;;;5.65;3.40;;;13.50;65.70;;;;;;5046680;28;20025;-74
2022/04/05 00:11:12;;;;;;;9.40;3.20;;;13.50;65.70;;;;;;5048169;28;20534;-75
2022/04/05 00:13:38;;;;;;;6.95;2.97;;;13.50;65.80;;;;;;5046495;28;20039;-75
2022/04/05 00:16:05;;;;;;;9.98;4.07;;;13.50;65.80;;;;;;5044873;28;20436;-75
2022/04/05 00:18:31;;;;;;;5.50;3.13;;;13.50;65.80;;;;;;5047827;28;20032;-75
2022/04/05 00:20:57;;;;;;;8.50;3.58;;;13.50;66.30;;;;;;5044010;28;20040;-75
2022/04/05 00:23:22;;;;;;;9.48;3.38;;;13.40;65.70;;;;;;5047647;28;20028;-75
2022/04/05 00:25:48;;;;;;;11.82;4.25;;;13.40;65.70;;;;;;5047732;28;20021;-75
2022/04/05 00:28:14;;;;;;;10.95;3.22;;;13.40;65.70;;;;;;5047719;28;20035;-75
2022/04/05 00:30:40;;;;;;;7.18;3.53;;;13.40;65.80;;;;;;5017134;28;20035;-75
2022/04/05 00:33:06;;;;;;;8.77;3.67;;;13.40;65.80;;;;;;5039903;28;20092;-74
2022/04/05 00:35:32;;;;;;;6.30;2.83;;;13.40;65.80;;;;;;5030328;28;20033;-75
2022/04/05 00:37:58;;;;;;;9.98;2.92;;;13.40;65.90;;;;;;5048718;28;20132;-74
2022/04/05 00:40:25;;;;;;;6.97;2.80;;;13.40;65.90;;;;;;5050342;28;20040;-74
2022/04/05 00:42:51;;;;;;;8.90;3.60;;;13.40;65.90;;;;;;5050225;28;20041;-74
2022/04/05 00:45:20;;;;;;;9.82;2.60;;;13.30;65.80;;;;;;5040996;28;20025;-75
2022/04/05 00:47:49;;;;;;;12.35;4.60;;;13.30;65.80;;;;;;5048813;28;20447;-74
2022/04/05 00:50:19;;;;;;;9.48;3.38;;;13.30;65.90;;;;;;5052761;28;20090;-74
2022/04/05 00:52:45;;;;;;;10.57;2.80;;;13.30;65.90;;;;;;5048981;28;20033;-74
2022/04/05 00:55:11;;;;;;;9.32;3.13;;;13.30;65.90;;;;;;5049229;28;20067;-75
2022/04/05 00:57:40;;;;;;;9.20;3.78;;;13.30;65.90;;;;;;5045865;28;20458;-75
2022/04/05 01:00:07;;;;;;;6.47;2.72;;;13.30;66.00;;;;;;5047659;28;20033;-75
2022/04/05 01:02:38;;;;;;;8.45;4.00;;;13.20;65.90;;;;;;5046860;28;20033;-75
2022/04/05 01:05:06;;;;;;;9.88;3.10;;;13.20;65.90;;;;;;5045389;28;20029;-75
2022/04/05 01:07:33;;;;;;;8.27;2.88;;;13.20;65.90;;;;;;5047582;28;20027;-75
2022/04/05 01:09:59;;;;;;;9.15;3.72;;;13.20;66.00;;;;;;5044574;28;20033;-75
2022/04/05 01:12:26;;;;;;;8.35;2.90;;;13.20;66.00;;;;;;5032536;28;20052;-75
2022/04/05 01:14:52;;;;;;;8.60;3.15;;;13.20;66.10;;;;;;5045008;28;20036;-75
2022/04/05 01:17:19;;;;;;;12.38;4.18;;;13.10;65.90;;;;;;5048338;28;20037;-75
2022/04/05 01:19:48;;;;;;;7.10;3.35;;;13.20;66.10;;;;;;5041672;28;20033;-75
2022/04/05 01:22:15;;;;;;;10.20;3.85;;;13.10;66.00;;;;;;5045932;28;20183;-75
2022/04/05 01:24:40;;;;;;;12.07;3.58;;;13.10;66.00;;;;;;5046924;28;20080;-75
2022/04/05 01:27:06;;;;;;;10.50;4.13;;;13.10;66.00;;;;;;5044957;28;20068;-75
2022/04/05 01:29:33;;;;;;;7.47;2.67;;;13.10;66.00;;;;;;5046363;28;20083;-75
2022/04/05 01:32:07;;;;;;;5.70;2.88;;;13.10;66.10;;;;;;5030133;28;20029;-75
2022/04/05 01:34:35;;;;;;;8.68;3.53;;;13.00;66.00;;;;;;5046934;28;20087;-75
2022/04/05 01:37:13;;;;;;;9.23;3.85;;;13.00;65.90;;;;;;5046808;28;20049;-75
2022/04/05 01:39:40;;;;;;;10.27;3.25;;;13.00;66.00;;;;;;5027675;28;20069;-75
2022/04/05 01:42:09;;;;;;;8.48;3.00;;;13.00;66.00;;;;;;5046087;28;20039;-75
2022/04/05 01:44:37;;;;;;;9.77;3.13;;;13.00;66.10;;;;;;5046296;28;20039;-75
2022/04/05 01:47:06;;;;;;;9.23;2.88;;;13.00;66.10;;;;;;5048536;28;20480;-75
2022/04/05 01:49:32;;;;;;;9.23;3.20;;;13.00;66.10;;;;;;5055861;28;20025;-76
2022/04/05 01:51:58;;;;;;;8.38;3.00;;;12.90;66.00;;;;;;5039870;28;20031;-75
2022/04/05 01:54:24;;;;;;;8.13;3.00;;;12.90;66.10;;;;;;5049566;28;20060;-75
2022/04/05 01:56:51;;;;;;;7.18;3.22;;;12.90;66.10;;;;;;5048963;28;20037;-75
2022/04/05 01:59:20;;;;;;;6.57;2.90;;;12.90;66.20;;;;;;5048103;28;20025;-74
2022/04/05 02:01:47;;;;;;;10.07;2.60;;;12.90;66.20;;;;;;5048463;28;20260;-75
2022/04/05 02:04:14;;;;;;;11.02;3.97;;;12.90;66.20;;;;;;5048031;28;20407;-75
2022/04/05 02:06:41;;;;;;;10.65;3.47;;;12.90;66.30;;;;;;5031299;28;20480;-75
2022/04/05 02:09:07;;;;;;;13.93;3.80;;;12.90;66.80;;;;;;5032770;28;20119;-75
2022/04/05 02:11:35;;;;;;;8.75;3.15;;;12.90;66.30;;;;;;5032032;28;20551;-75
2022/04/05 02:14:12;;;;;;;11.48;2.97;;;12.90;66.30;;;;;;5034373;28;20033;-75
2022/04/05 02:16:38;;;;;;;7.13;3.90;;;12.90;66.30;;;;;;5031596;28;20048;-75
2022/04/05 02:19:06;;;;;;;11.32;3.95;;;12.90;66.40;;;;;;5058046;28;20090;-75
2022/04/05 02:21:34;;;;;;;8.43;3.13;;;12.80;66.10;;;;;;5046718;28;20276;-74
2022/04/05 02:24:01;;;;;;;10.40;3.83;;;12.80;66.20;;;;;;5048133;28;20041;-75
2022/04/05 02:26:32;;;;;;;13.10;3.80;;;12.90;66.90;;;;;;5046331;28;20147;-74
2022/04/05 02:29:00;;;;;;;10.70;3.17;;;12.90;66.40;;;;;;5036327;28;20040;-74
2022/04/05 02:31:30;;;;;;;9.05;3.08;;;12.80;66.20;;;;;;5029703;28;20087;-75
2022/04/05 02:33:57;;;;;;;10.45;3.05;;;12.90;66.40;;;;;;5034290;28;20480;-75
2022/04/05 02:36:35;;;;;;;6.60;2.90;;;12.80;66.30;;;;;;5022481;28;20045;-75
2022/04/05 02:39:04;;;;;;;8.13;2.85;;;12.90;66.50;;;;;;5028154;28;20171;-75
2022/04/05 02:41:32;;;;;;;7.90;3.25;;;12.80;66.30;;;;;;5030936;28;20037;-74
2022/04/05 02:43:59;;;;;;;9.88;3.85;;;12.90;66.50;;;;;;5029216;28;20380;-75
2022/04/05 02:46:26;;;;;;;12.10;3.33;;;12.80;66.40;;;;;;5037344;28;20196;-75
2022/04/05 02:48:54;;;;;;;8.93;3.13;;;12.80;66.40;;;;;;5046819;28;20029;-75
2022/04/05 02:51:30;;;;;;;8.75;2.78;;;12.90;66.60;;;;;;5009272;28;20033;-75
2022/04/05 02:53:59;;;;;;;5.85;3.25;;;12.80;66.40;;;;;;5034883;28;20025;-75
2022/04/05 02:56:28;;;;;;;8.40;3.30;;;12.80;66.40;;;;;;5035200;28;20045;-75
2022/04/05 02:58:57;;;;;;;9.18;4.85;;;12.80;66.40;;;;;;5046319;28;20506;-75
2022/04/05 03:01:23;;;;;;;8.63;3.60;;;12.80;66.40;;;;;;5039031;28;20029;-74
2022/04/05 03:03:50;;;;;;;8.40;3.55;;;12.90;66.60;;;;;;5046746;28;20017;-75
2022/04/05 03:06:17;;;;;;;7.07;3.13;;;12.80;66.50;;;;;;5046703;28;20040;-75
2022/04/05 03:08:46;;;;;;;8.20;2.75;;;12.80;66.50;;;;;;5027697;28;20025;-75
2022/04/05 03:11:13;;;;;;;11.38;3.97;;;12.80;66.50;;;;;;5049138;28;20029;-75
2022/04/05 03:13:39;;;;;;;8.43;3.50;;;12.80;66.50;;;;;;5028096;28;20029;-75
2022/04/05 03:16:06;;;;;;;12.15;5.05;;;12.80;66.50;;;;;;5028241;28;20059;-74
2022/04/05 03:18:34;;;;;;;9.00;3.65;;;12.80;66.60;;;;;;5030310;28;20186;-74
2022/04/05 03:21:01;;;;;;;8.15;3.10;;;12.80;66.60;;;;;;5032678;28;20440;-74
2022/04/05 03:23:27;;;;;;;11.27;3.58;;;12.80;66.60;;;;;;5032297;28;20041;-74
2022/04/05 03:25:53;;;;;;;7.55;3.45;;;12.80;66.60;;;;;;5051709;28;20029;-74
2022/04/05 03:28:26;;;;;;;9.52;4.85;;;12.80;66.70;;;;;;5030108;28;20021;-75
2022/04/05 03:30:52;;;;;;;8.02;3.63;;;12.70;66.60;;;;;;5049157;28;20483;-75
2022/04/05 03:33:18;;;;;;;12.65;4.97;;;12.80;66.70;;;;;;5011975;28;20036;-75
2022/04/05 03:35:45;;;;;;;9.85;3.70;;;12.80;66.70;;;;;;5047620;28;20029;-75
2022/04/05 03:38:11;;;;;;;10.52;4.28;;;12.80;66.80;;;;;;5046612;28;20049;-74
2022/04/05 03:40:38;;;;;;;8.05;3.95;;;12.80;66.80;;;;;;5036816;28;20025;-74
2022/04/05 03:43:12;;;;;;;8.90;4.40;;;12.80;66.80;;;;;;5036666;28;20158;-75
2022/04/05 03:45:39;;;;;;;12.88;4.20;;;12.80;66.80;;;;;;5029425;28;20036;-74
2022/04/05 03:48:06;;;;;;;14.95;5.22;;;12.80;66.90;;;;;;5046489;28;20234;-76
2022/04/05 03:50:33;;;;;;;9.93;3.90;;;12.70;66.70;;;;;;5045770;28;20033;-75
2022/04/05 03:53:01;;;;;;;7.65;3.75;;;12.80;66.90;;;;;;5027555;28;20483;-74
2022/04/05 03:55:30;;;;;;;8.82;4.20;;;12.80;66.90;;;;;;5012708;28;20040;-75
2022/04/05 03:57:58;;;;;;;12.88;4.60;;;12.80;66.90;;;;;;5026005;28;20179;-75
2022/04/05 04:00:27;;;;;;;8.82;4.07;;;12.80;66.90;;;;;;5029102;28;20038;-75
2022/04/05 04:03:04;;;;;;;9.55;4.22;;;12.80;66.90;;;;;;5030292;28;20037;-74
2022/04/05 04:05:31;;;;;;;12.30;4.50;;;12.80;66.90;;;;;;5029510;28;20182;-75
2022/04/05 04:07:57;;;;;;;9.43;4.10;;;12.70;66.80;;;;;;5044909;28;20033;-75
2022/04/05 04:10:25;;;;;;;7.90;3.80;;;12.80;67.40;;;;;;5036287;28;20032;-75
2022/04/05 04:12:56;;;;;;;11.95;4.82;;;12.70;66.70;;;;;;5043120;28;20044;-75
2022/04/05 04:15:26;;;;;;;11.93;4.25;;;12.80;66.90;;;;;;5034650;28;20025;-75
2022/04/05 04:17:53;;;;;;;14.27;4.95;;;12.70;66.70;;;;;;5028056;28;20155;-75
2022/04/05 04:20:21;;;;;;;12.00;4.40;;;12.70;66.70;;;;;;5028719;28;20415;-75
2022/04/05 04:22:47;;;;;;;15.70;5.65;;;12.70;66.80;;;;;;5033937;28;20060;-75
2022/04/05 04:25:14;;;;;;;14.00;4.43;;;12.70;66.70;;;;;;5029858;28;20200;-75
2022/04/05 04:27:40;;;;;;;10.25;4.07;;;12.70;66.80;;;;;;5029029;28;20021;-75
2022/04/05 04:30:06;;;;;;;14.10;4.90;;;12.70;66.80;;;;;;5046530;28;20115;-75
2022/04/05 04:32:32;;;;;;;12.60;5.30;;;12.70;66.90;;;;;;5045955;28;20044;-75
2022/04/05 04:34:58;;;;;;;12.40;4.60;;;12.70;66.90;;;;;;5048050;28;20029;-75
2022/04/05 04:37:24;;;;;;;12.57;4.50;;;12.70;66.90;;;;;;5046785;28;20043;-75
2022/04/05 04:39:50;;;;;;;7.85;3.58;;;12.70;66.90;;;;;;5055072;28;20124;-75
2022/04/05 04:42:16;;;;;;;10.35;3.63;;;12.80;67.10;;;;;;5055153;28;20059;-75
2022/04/05 04:44:42;;;;;;;10.38;3.45;;;12.70;66.90;;;;;;5039905;28;20114;-75
2022/04/05 04:47:08;;;;;;;8.80;3.25;;;12.80;67.10;;;;;;5054250;28;20033;-75
2022/04/05 04:49:34;;;;;;;12.05;5.38;;;12.80;67.10;;;;;;5048661;28;20029;-75
2022/04/05 04:52:00;;;;;;;10.13;4.95;;;12.80;67.20;;;;;;5045811;28;20025;-75
2022/04/05 04:54:26;;;;;;;11.73;3.95;;;12.80;67.10;;;;;;5047795;28;20131;-74
2022/04/05 04:56:52;;;;;;;10.40;3.30;;;12.80;67.10;;;;;;5067381;28;20112;-74
2022/04/05 04:59:18;;;;;;;10.63;4.40;;;12.80;67.10;;;;;;5046315;28;20550;-76
2022/04/05 05:01:43;;;;;;;12.45;5.25;;;12.80;67.10;;;;;;5044908;28;20044;-76
2022/04/05 05:04:09;;;;;;;11.30;5.25;;;12.80;67.10;;;;;;5031089;28;20120;-77
2022/04/05 05:06:35;;;;;;;11.93;4.18;;;12.80;67.10;;;;;;5029420;28;20037;-75
2022/04/05 05:09:01;;;;;;;9.85;4.57;;;12.70;67.00;;;;;;5031901;28;20399;-75
2022/04/05 05:11:27;;;;;;;11.27;4.53;;;12.80;67.20;;;;;;5030223;28;20035;-75
2022/04/05 05:13:54;;;;;;;12.48;4.38;;;12.70;67.10;;;;;;5040280;28;20039;-74
2022/04/05 05:16:20;;;;;;;11.63;4.43;;;12.70;67.20;;;;;;5038134;28;20056;-74
2022/04/05 05:18:46;;;;;;;12.45;4.53;;;12.70;67.20;;;;;;5045366;28;20029;-75
2022/04/05 05:21:12;;;;;;;13.20;4.63;;;12.70;67.20;;;;;;5027062;28;20091;-75
2022/04/05 05:23:38;;;;;;;19.10;5.47;;;12.70;67.30;;;;;;5040536;28;20032;-75
2022/04/05 05:26:04;;;;;;;9.88;4.32;;;12.70;67.30;;;;;;5041775;28;20188;-75
2022/04/05 05:28:30;;;;;;;11.98;5.55;;;12.60;67.20;;;;;;5041180;28;20025;-75
2022/04/05 05:30:56;;;;;;;8.85;4.28;;;12.60;67.20;;;;;;5042431;28;20029;-75
2022/04/05 05:33:22;;;;;;;14.50;4.35;;;12.60;67.20;;;;;;5043119;28;20036;-75
2022/04/05 05:35:48;;;;;;;11.00;3.72;;;12.60;67.20;;;;;;5039727;28;20048;-75
2022/04/05 05:38:13;;;;;;;10.63;3.78;;;12.60;67.20;;;;;;5040394;28;20080;-76
2022/04/05 05:40:39;;;;;;;9.98;4.15;;;12.70;67.50;;;;;;5052619;28;20124;-76
2022/04/05 05:43:06;;;;;;;11.45;4.60;;;12.60;67.30;;;;;;5044318;28;20495;-75
2022/04/05 05:45:35;;;;;;;11.77;4.07;;;12.60;67.30;;;;;;5024323;28;20052;-75
2022/04/05 05:48:02;;;;;;;8.68;4.10;;;12.60;67.30;;;;;;5040546;28;20098;-75
2022/04/05 05:50:29;;;;;;;11.57;4.60;;;12.60;67.30;;;;;;5036970;28;20033;-76
2022/04/05 05:52:56;;;;;;;10.68;4.53;;;12.60;67.30;;;;;;5039298;28;20606;-75
2022/04/05 05:55:22;;;;;;;12.32;4.53;;;12.60;67.30;;;;;;5042210;28;20078;-73
2022/04/05 05:57:49;;;;;;;10.45;4.30;;;12.60;67.30;;;;;;5042048;28;20291;-73
2022/04/05 06:00:20;;;;;;;9.60;4.43;;;12.60;67.30;;;;;;5037138;28;20432;-72
2022/04/05 06:02:49;;;;;;;9.10;4.47;;;12.60;67.30;;;;;;5038632;28;20116;-73
2022/04/05 06:05:15;;;;;;;14.60;5.20;;;12.60;67.30;;;;;;5040733;28;20072;-75
2022/04/05 06:07:42;;;;;;;14.68;4.90;;;12.60;67.30;;;;;;5041831;28;20041;-75
2022/04/05 06:10:09;;;;;;;13.57;6.57;;;12.60;67.30;;;;;;5042360;28;20044;-75
2022/04/05 06:12:43;;;;;;;11.05;5.07;;;12.60;67.30;;;;;;5042232;28;20074;-75
2022/04/05 06:15:12;;;;;;;16.98;7.03;;;12.60;67.30;;;;;;5021999;28;20064;-75
2022/04/05 06:17:41;;;;;;;15.75;5.60;;;12.60;67.30;;;;;;5030996;28;20065;-75
2022/04/05 06:20:08;;;;;;;10.13;4.50;;;12.60;67.30;;;;;;5042810;28;20483;-75
2022/04/05 06:23:03;;;;;;;17.25;5.57;;;12.70;67.40;;;;;;5010617;28;20037;-77
2022/04/05 06:25:37;;;;;;;9.30;4.65;;;12.70;67.50;;;;;;5021546;28;20041;-76
2022/04/05 06:28:06;;;;;;;12.73;5.57;;;12.70;67.40;;;;;;5041890;28;20676;-77
2022/04/05 06:30:33;;;;;;;12.43;5.60;;;12.70;67.30;;;;;;5042550;28;20045;-78
2022/04/05 06:33:11;;;;;;;10.93;4.63;;;12.70;67.30;;;;;;5041505;28;20021;-78
2022/04/05 06:35:40;;;;;;;13.43;5.93;;;12.80;67.50;;;;;;5042628;28;20033;-77
2022/04/05 06:38:06;;;;;;;9.13;4.55;;;12.80;67.40;;;;;;5034346;28;20539;-74
2022/04/05 06:40:32;;;;;;;10.80;4.50;;;12.80;67.30;;;;;;5041658;28;20115;-75
2022/04/05 06:42:58;;;;;;;15.30;6.25;;;12.80;67.30;;;;;;5040703;28;20083;-77
2022/04/05 06:45:24;;;;;;;12.50;5.13;;;12.90;67.40;;;;;;5040045;28;20419;-76
2022/04/05 06:47:51;;;;;;;15.18;7.00;;;12.90;67.30;;;;;;5036601;28;20488;-77
2022/04/05 06:50:20;;;;;;;11.05;4.40;;;13.00;67.40;;;;;;5033474;28;20299;-76
2022/04/05 06:52:47;;;;;;;14.63;5.25;;;13.00;67.30;;;;;;5038803;28;20056;-76
2022/04/05 06:55:12;;;;;;;10.40;5.30;;;13.10;67.40;;;;;;5035197;28;20068;-77
2022/04/05 06:57:39;;;;;;;8.85;3.92;;;13.10;67.30;;;;;;5040405;28;20041;-76
2022/04/05 07:00:08;;;;;;;10.70;4.22;;;13.10;67.20;;;;;;5040324;28;20399;-76
2022/04/05 07:02:34;;;;;;;14.75;5.55;;;13.10;67.10;;;;;;5038261;28;20037;-76
2022/04/05 07:05:00;;;;;;;11.68;4.97;;;13.20;67.20;;;;;;5023992;28;20337;-77
2022/04/05 07:07:26;;;;;;;12.85;4.65;;;13.20;67.10;;;;;;5022374;28;20037;-75
2022/04/05 07:09:52;;;;;;;14.02;4.53;;;13.20;67.00;;;;;;5041162;28;20451;-76
2022/04/05 07:12:18;;;;;;;13.90;5.13;;;13.30;67.70;;;;;;5041045;28;20144;-77
2022/04/05 07:14:43;;;;;;;12.55;4.53;;;13.30;67.00;;;;;;5041972;28;20036;-77
2022/04/05 07:17:09;;;;;;;15.13;4.70;;;13.40;67.10;;;;;;5021482;28;20037;-77
2022/04/05 07:19:35;;;;;;;10.98;5.00;;;13.40;67.00;;;;;;5025693;28;20033;-76
2022/04/05 07:22:02;;;;;;;8.73;3.97;;;13.50;67.10;;;;;;5043802;28;20037;-77
2022/04/05 07:24:29;;;;;;;8.13;3.55;;;13.50;66.90;;;;;;5044600;28;20029;-76
2022/04/05 07:26:55;;;;;;;16.55;5.47;;;13.60;66.90;;;;;;5048817;28;20545;-76
2022/04/05 07:29:21;;;;;;;17.10;5.13;;;13.70;66.90;;;;;;5028591;28;20033;-77
2022/04/05 07:31:47;;;;;;;13.02;3.72;;;13.80;66.90;;;;;;5042422;28;20119;-76
2022/04/05 07:34:13;;;;;;;7.72;3.90;;;13.80;66.60;;;;;;5044334;28;20029;-76
2022/04/05 07:36:39;;;;;;;12.57;3.95;;;13.90;66.60;;;;;;5026630;28;20700;-77
2022/04/05 07:39:05;;;;;;;12.48;4.07;;;14.10;66.70;;;;;;5044181;28;20060;-76
2022/04/05 07:41:31;;;;;;;11.57;3.30;;;14.20;66.60;;;;;;5043579;28;20037;-75
2022/04/05 07:43:56;;;;;;;13.75;4.07;;;14.30;66.40;;;;;;5032136;28;20030;-80
2022/04/05 07:46:22;;;;;;;9.98;3.08;;;14.50;66.40;;;;;;5047880;28;20114;-81
2022/04/05 07:48:48;;;;;;;12.20;3.20;;;14.60;66.40;;;;;;5031102;28;20039;-75
2022/04/05 07:51:15;;;;;;;8.15;2.92;;;14.80;67.00;;;;;;5039582;28;20021;-76
2022/04/05 07:53:41;;;;;;;9.65;3.85;;;14.90;67.20;;;;;;5035872;28;20052;-76
2022/04/05 07:56:08;;;;;;;12.35;4.05;;;15.00;67.20;;;;;;5042936;28;20051;-79
2022/04/05 07:58:34;;;;;;;12.02;2.72;;;15.10;67.20;;;;;;5034485;28;20362;-76
2022/04/05 08:01:00;;;;;;;11.05;2.53;;;15.20;67.10;;;;;;5034337;28;20033;-78
2022/04/05 08:03:27;;;;;;;9.77;2.92;;;15.30;67.10;;;;;;5055867;28;20025;-77
2022/04/05 08:05:53;;;;;;;9.48;3.58;;;15.30;66.90;;;;;;5046496;28;20028;-78
2022/04/05 08:08:19;;;;;;;9.45;3.78;;;15.40;66.90;;;;;;5045305;28;20021;-78
2022/04/05 08:10:45;;;;;;;13.77;3.60;;;15.30;66.50;;;;;;5041947;28;20384;-78
2022/04/05 08:13:11;;;;;;;9.93;3.08;;;15.40;66.50;;;;;;5045033;28;20051;-78
2022/04/05 08:15:39;;;;;;;7.38;2.55;;;15.40;66.30;;;;;;5059326;28;20037;-77
2022/04/05 08:18:05;;;;;;;8.80;2.58;;;15.50;66.30;;;;;;5024968;28;20404;-77
2022/04/05 08:20:32;;;;;;;12.27;3.65;;;15.60;66.20;;;;;;5039402;28;20525;-77
2022/04/05 08:22:58;;;;;;;10.95;2.72;;;15.60;66.00;;;;;;5046040;28;20032;-78
2022/04/05 08:25:24;;;;;;;11.23;3.28;;;15.80;66.00;;;;;;5035638;28;20033;-77
2022/04/05 08:27:49;;;;;;;8.85;2.88;;;15.80;65.70;;;;;;5045874;28;20036;-77
2022/04/05 08:30:17;;;;;;;8.75;2.65;;;16.00;65.70;;;;;;5037806;28;20581;-76
2022/04/05 08:32:45;;;;;;;9.20;3.17;;;16.10;65.50;;;;;;5029164;28;20040;-75
2022/04/05 08:35:17;;;;;;;14.23;3.95;;;16.20;65.30;;;;;;5046465;28;20153;-77
2022/04/05 08:37:43;;;;;;;10.43;2.72;;;16.30;65.20;;;;;;5044449;28;20044;-78
2022/04/05 08:40:11;;;;;;;11.00;3.55;;;16.40;65.10;;;;;;5027955;28;20044;-77
2022/04/05 08:42:41;;;;;;;10.85;3.80;;;16.50;65.40;;;;;;5031955;28;20033;-78
2022/04/05 08:45:10;;;;;;;11.65;2.83;;;16.50;64.60;;;;;;5036311;28;20111;-75
2022/04/05 08:47:56;;;;;;;8.98;3.25;;;16.60;64.40;;;;;;5045019;28;20657;-76
2022/04/05 08:50:26;;;;;;;10.05;3.72;;;16.70;64.20;;;;;;5057637;28;20451;-76
2022/04/05 08:52:56;;;;;;;10.27;3.78;;;16.80;64.20;;;;;;5048681;28;20115;-77
2022/04/05 08:55:23;;;;;;;10.15;3.22;;;16.90;64.20;;;;;;5050023;28;20033;-77
2022/04/05 08:57:49;;;;;;;9.95;3.00;;;16.90;63.90;;;;;;5027617;28;20045;-77
2022/04/05 09:00:19;;;;;;;8.80;3.17;;;17.10;63.90;;;;;;5027017;28;20040;-78
2022/04/05 09:02:53;;;;;;;7.20;2.97;;;17.10;63.50;;;;;;5044260;28;20087;-76
2022/04/05 09:05:43;;;;;;;9.38;2.85;;;17.30;63.40;;;;;;5055201;28;20112;-74
2022/04/05 09:08:25;;;;;;;9.43;3.15;;;17.30;62.90;;;;;;5044215;28;20025;-74
2022/04/05 09:10:53;;;;;;;7.50;2.47;;;17.50;63.00;;;;;;5027724;28;20036;-76
2022/04/05 09:13:25;;;;;;;7.82;2.38;;;17.60;63.00;;;;;;5045598;28;20031;-73
2022/04/05 09:15:54;;;;;;;8.03;2.20;;;17.70;62.80;;;;;;5036005;28;20427;-77
2022/04/05 09:18:40;;;;;;;8.20;2.15;;;17.80;62.70;;;;;;5024829;28;20134;-78
2022/04/05 09:21:08;;;;;;;8.32;2.92;;;17.90;62.40;;;;;;5018253;28;20394;-75
2022/04/05 09:23:41;;;;;;;7.97;3.05;;;18.00;62.30;;;;;;5041071;28;20468;-79
2022/04/05 09:26:13;;;;;;;8.82;3.03;;;18.10;62.20;;;;;;5036559;28;20463;-79
2022/04/05 09:28:45;;;;;;;8.35;2.47;;;18.20;62.00;;;;;;5040644;28;20060;-78
2022/04/05 09:31:13;;;;;;;8.57;2.00;;;18.20;61.90;;;;;;5032036;28;20156;-78
2022/04/05 09:34:03;;;;;;;6.50;2.13;;;18.30;61.80;;;;;;5020526;28;20306;-78
2022/04/05 09:36:38;;;;;;;8.93;2.45;;;18.40;61.40;;;;;;5032233;28;20451;-77
2022/04/05 09:39:19;;;;;;;7.50;2.28;;;18.40;61.30;;;;;;5035570;28;20050;-77
2022/04/05 09:42:09;;;;;;;8.25;3.22;;;18.40;61.00;;;;;;5034129;28;20036;-77
2022/04/05 09:44:43;;;;;;;6.15;2.63;;;18.50;61.00;;;;;;5044916;28;20292;-75
2022/04/05 09:47:16;;;;;;;6.45;2.38;;;18.50;61.10;;;;;;5042048;28;20148;-73
2022/04/05 09:49:44;;;;;;;6.80;1.92;;;18.50;61.00;;;;;;5043610;28;20056;-76
2022/04/05 09:52:29;;;;;;;7.43;1.98;;;18.60;60.90;;;;;;5038221;28;20107;-74
2022/04/05 09:54:56;;;;;;;5.60;2.00;;;18.60;60.50;;;;;;5035870;28;20414;-76
2022/04/05 09:57:30;;;;;;;7.03;2.58;;;18.70;60.60;;;;;;5028877;28;20045;-77
2022/04/05 10:00:17;;;;;;;6.53;2.70;;;18.90;60.50;;;;;;5044212;28;20029;-74
2022/04/05 10:03:04;;;;;;;9.95;2.63;;;19.00;60.40;;;;;;5035002;28;20025;-76
2022/04/05 10:05:31;;;;;;;7.18;2.22;;;19.10;60.20;;;;;;5042681;28;20037;-75
2022/04/05 10:07:58;;;;;;;10.93;3.05;;;19.30;60.30;;;;;;5044585;28;20039;-75
2022/04/05 10:10:24;;;;;;;14.68;3.33;;;19.40;60.00;;;;;;5023310;28;20391;-77
2022/04/05 10:12:51;;;;;;;7.43;2.72;;;19.50;59.90;;;;;;5054485;28;20048;-77
2022/04/05 10:15:18;;;;;;;9.55;2.65;;;19.50;59.70;;;;;;5042942;28;20340;-76
2022/04/05 10:17:47;;;;;;;10.02;3.22;;;19.50;59.60;;;;;;5042031;28;20559;-75
2022/04/05 10:20:13;;;;;;;10.35;3.28;;;19.60;59.70;;;;;;5042380;28;20373;-75
2022/04/05 10:22:41;;;;;;;6.95;2.47;;;19.60;59.60;;;;;;5044476;28;20033;-74
2022/04/05 10:25:08;;;;;;;9.90;3.05;;;19.70;59.60;;;;;;5043402;28;20035;-73
2022/04/05 10:27:34;;;;;;;10.23;2.60;;;19.70;59.60;;;;;;5032984;28;20427;-76
2022/04/05 10:30:03;;;;;;;15.55;2.85;;;19.70;59.40;;;;;;5040953;28;20230;-76
2022/04/05 10:32:43;;;;;;;7.13;3.25;;;19.70;59.30;;;;;;5042740;28;20474;-77
2022/04/05 10:35:10;;;;;;;7.72;2.53;;;19.60;59.00;;;;;;5043575;28;20041;-73
2022/04/05 10:37:41;;;;;;;7.60;2.20;;;19.60;59.10;;;;;;5031051;28;20058;-74
2022/04/05 10:40:10;;;;;;;8.98;3.22;;;19.60;59.10;;;;;;5041220;28;20565;-74
2022/04/05 10:42:47;;;;;;;9.10;2.78;;;19.60;59.10;;;;;;5043852;28;20036;-76
2022/04/05 10:45:13;;;;;;;7.43;2.45;;;19.60;58.90;;;;;;5054300;28;20040;-76
2022/04/05 10:48:09;;;;;;;10.82;3.50;;;19.60;59.00;;;;;;5042442;28;20502;-76
2022/04/05 10:50:34;;;;;;;9.05;2.33;;;19.50;58.70;;;;;;5043187;28;20033;-76
2022/04/05 10:53:21;;;;;;;9.10;2.08;;;19.40;58.80;;;;;;5024934;28;20369;-77
2022/04/05 10:56:07;;;;;;;9.00;2.30;;;19.30;58.40;;;;;;5024761;28;20443;-76
2022/04/05 10:58:40;;;;;;;7.03;2.55;;;19.30;58.40;;;;;;5042172;28;20485;-78
2022/04/05 11:01:14;;;;;;;6.80;1.77;;;19.30;58.50;;;;;;5040037;28;20036;-77
2022/04/05 11:03:40;;;;;;;7.43;1.90;;;19.30;58.30;;;;;;5055525;28;20572;-78
2022/04/05 11:06:06;;;;;;;9.60;3.28;;;19.30;58.30;;;;;;5043826;28;20025;-78
2022/04/05 11:08:33;;;;;;;7.97;2.50;;;19.30;58.10;;;;;;5021449;28;20503;-78
2022/04/05 11:11:01;;;;;;;6.63;2.30;;;19.30;58.00;;;;;;5043284;28;20033;-78
2022/04/05 11:13:42;;;;;;;9.15;2.50;;;19.40;58.10;;;;;;5039407;28;20037;-77
2022/04/05 11:16:10;;;;;;;7.93;2.20;;;19.40;57.80;;;;;;5029359;28;20059;-78
2022/04/05 11:18:37;;;;;;;8.73;1.80;;;19.40;58.00;;;;;;5046243;28;20044;-77
2022/04/05 11:21:08;;;;;;;10.00;2.80;;;19.50;58.10;;;;;;5025559;28;20029;-78
2022/04/05 11:24:03;;;;;;;7.38;2.97;;;19.50;57.90;;;;;;5042861;28;20033;-78
2022/04/05 11:26:35;;;;;;;7.43;2.38;;;19.50;57.60;;;;;;5010230;28;20044;-75
2022/04/05 11:29:17;;;;;;;10.63;2.07;;;19.50;57.90;;;;;;5023555;28;20060;-76
2022/04/05 11:31:43;;;;;;;7.63;2.70;;;19.60;58.20;;;;;;5040809;28;20067;-77
2022/04/05 11:34:32;;;;;;;8.30;2.13;;;19.60;58.10;;;;;;5025585;28;20618;-76
2022/04/05 11:36:58;;;;;;;8.05;2.78;;;19.60;58.00;;;;;;5040190;28;20037;-76
2022/04/05 11:39:24;;;;;;;7.88;2.45;;;19.60;58.10;;;;;;5041429;28;20049;-75
2022/04/05 11:41:58;;;;;;;12.90;3.55;;;19.70;58.10;;;;;;5043298;28;20036;-76
2022/04/05 11:44:24;;;;;;;8.40;2.67;;;19.80;57.90;;;;;;5023830;28;20026;-76
2022/04/05 11:46:54;;;;;;;8.98;2.63;;;19.80;58.40;;;;;;5042501;28;20137;-76
2022/04/05 11:49:20;;;;;;;7.45;2.45;;;19.90;57.90;;;;;;5035724;28;20072;-76
2022/04/05 11:51:48;;;;;;;10.70;3.22;;;19.90;57.80;;;;;;5056223;28;20025;-74
2022/04/05 11:54:17;;;;;;;11.98;3.88;;;19.80;57.60;;;;;;5044294;28;20033;-75
2022/04/05 11:56:45;;;;;;;8.40;1.65;;;19.80;57.50;;;;;;5023422;28;20049;-76
2022/04/05 11:59:13;;;;;;;9.73;2.40;;;19.80;57.40;;;;;;5047818;28;20440;-75
2022/04/05 12:01:42;;;;;;;8.02;2.50;;;19.80;57.30;;;;;;5010048;28;20039;-80
2022/04/05 12:04:12;;;;;;;6.95;2.70;;;19.80;57.30;;;;;;5023067;28;20455;-79
2022/04/05 12:06:42;;;;;;;6.38;2.00;;;19.80;57.30;;;;;;5037352;28;20780;-79
2022/04/05 12:09:17;;;;;;;7.80;2.38;;;19.80;57.00;;;;;;5029216;28;20063;-79
2022/04/05 12:11:47;;;;;;;8.38;2.78;;;19.90;57.10;;;;;;5036335;28;20036;-79
2022/04/05 12:14:18;;;;;;;8.52;2.35;;;20.00;57.10;;;;;;5041918;28;20025;-76
2022/04/05 12:16:52;;;;;;;6.57;2.00;;;20.30;57.20;;;;;;5035981;28;20256;-76
2022/04/05 12:19:23;;;;;;;8.60;2.30;;;20.50;57.00;;;;;;5042892;28;20020;-77
2022/04/05 12:22:07;;;;;;;7.28;2.60;;;20.80;57.10;;;;;;5031619;28;20250;-76
2022/04/05 12:24:35;;;;;;;6.15;2.60;;;21.10;56.90;;;;;;5041239;28;20033;-75
2022/04/05 12:27:03;;;;;;;7.18;2.17;;;21.30;56.80;;;;;;5022425;28;20116;-74
2022/04/05 12:29:30;;;;;;;5.30;1.95;;;21.50;57.00;;;;;;5039130;28;20035;-75
2022/04/05 12:32:08;;;;;;;8.40;2.53;;;21.70;56.60;;;;;;5028067;28;20040;-76
2022/04/05 12:34:34;;;;;;;6.57;2.45;;;21.90;56.40;;;;;;5024312;28;20025;-76
2022/04/05 12:37:02;;;;;;;9.82;2.38;;;22.00;56.40;;;;;;5042196;28;20577;-76
2022/04/05 12:39:30;;;;;;;9.00;2.35;;;22.10;56.30;;;;;;5038246;28;20156;-76
2022/04/05 12:42:03;;;;;;;7.15;2.33;;;22.20;56.20;;;;;;5042835;28;20380;-76
2022/04/05 12:44:34;;;;;;;8.02;2.53;;;22.30;56.10;;;;;;5021118;28;20110;-75
2022/04/05 12:47:08;;;;;;;9.32;3.08;;;22.40;56.10;;;;;;5031264;28;20033;-75
2022/04/05 12:49:41;;;;;;;7.60;2.65;;;22.50;55.90;;;;;;5038289;28;20044;-75
2022/04/05 12:52:20;;;;;;;8.82;2.30;;;22.60;55.80;;;;;;5041944;28;20043;-76